Saturday, August 18, 2018, 3:19 AM EDT
Back to Local

KBGR, Bangor Int'l Airport

Location: Bangor, ME, United States Lat: 44.8
Local Time: 3:19 AM EDT ( 7:19 GMT) Lon: -68.817
Time Zone: US/Eastern Elev: 193 ft

Show me the last for .
Show Coded

Time T Td Feel RH Dir Speed Gust Alt SLP Vis Weather Sky Remarks
2018-08-18 02:53 69 68 - 96 170° 8 - 29.81 29.80 6 BR OVC003 None
2018-08-18 01:53 69 67 - 92 160° 7 - 29.84 29.83 6 BR OVC004 1-hr Precip Total: Trace
6-hr Precip Total (2am): 0.03"
6-hr Min Temp (2am): 66.9°F
6-hr Max Temp (2am): 69.1°F
2018-08-18 01:34 68 67 - 96 170° 7 - 29.85 - 6 BR OVC004 Lighting in the vicinity
1-hr Precip Total: Trace
2018-08-18 01:18 68 67 - 96 170° 6 - 29.85 - 3 -RA BR OVC005 Lighting in the vicinity
1-hr Precip Total: Trace
2018-08-18 01:06 68 67 - 96 170° 8 - 29.86 - 3 -TSRA BR OVC005 Lighting in the vicinity
1-hr Precip Total: Trace
2018-08-18 00:53 68 67 - 96 180° 6 - 29.87 29.86 2 -TSRA BR OVC006CB Lighting in the vicinity
1-hr Precip Total: 0.03"
24-hr Min Temp (1am): 52.0°F
24-hr Max Temp (1am): 78.1°F
2018-08-18 00:44 68 66 - 93 190° 12 - 29.88 - 3 -TSRA BR OVC006 Lighting in the vicinity
1-hr Precip Total: 0.01"
2018-08-17 23:53 68 64 - 87 170° 8 - 29.89 29.88 8 BKN009 OVC065 None
2018-08-17 22:53 67 63 - 87 170° 9 - 29.93 29.92 9 OVC009 6-hr Precip Total (11pm): 0.00"
2018-08-17 22:25 67 62 - 84 170° 10 - 29.94 - 10 OVC009 None
2018-08-17 21:53 67 61 - 81 170° 9 - 29.96 29.95 10 BKN012 OVC070 None
2018-08-17 21:32 67 60 - 78 170° 7 - 29.96 - 10 BKN013 BKN050 OVC100 None
2018-08-17 20:53 67 61 - 81 160° 7 - 29.97 29.96 10 SCT095 OVC120 1-hr Precip Total: Trace
2018-08-17 19:53 68 62 - 81 160° 12 - 29.97 29.97 10 SCT036 OVC200 6-hr Min Temp (8pm): 68.0°F
6-hr Max Temp (8pm): 78.1°F
2018-08-17 18:53 69 61 - 75 170° 10 - 29.98 29.98 10 SCT085 SCT110 OVC200 None
2018-08-17 17:53 71 60 76 68 180° 13 - 29.99 29.99 10 BKN200 None
2018-08-17 16:53 74 62 77 66 200° 13 - 30.00 29.99 10 BKN200 None
2018-08-17 15:53 75 61 78 61 180° 13 - 30.02 30.01 10 BKN200 None
2018-08-17 14:53 77 61 79 57 160° 9 - 30.04 30.03 10 FEW037 BKN200 None
2018-08-17 13:53 76 59 78 55 180° 9 - 30.05 30.04 10 FEW030 BKN200 6-hr Min Temp (2pm): 62.1°F
6-hr Max Temp (2pm): 77.0°F
2018-08-17 12:53 76 58 78 53 210° 9 - 30.07 30.06 10 SCT030 None
2018-08-17 11:53 74 58 77 57 190° 10 - 30.09 30.08 10 SCT030 None
2018-08-17 10:53 73 60 77 63 200° 7 - 30.11 30.09 10 SCT023 None
2018-08-17 09:53 69 61 - 75 200° 9 - 30.11 30.10 10 FEW025 None
2018-08-17 08:53 66 60 - 81 210° 7 - 30.13 30.12 10 FEW025 FEW075 None
2018-08-17 07:53 62 56 - 80 - Calm - 30.14 30.13 10 FEW060 6-hr Min Temp (8am): 52.0°F
6-hr Max Temp (8am): 62.1°F
2018-08-17 06:53 57 55 - 93 - Calm - 30.14 30.13 10 SCT050 None
2018-08-17 05:53 53 53 - 100 - Calm - 30.12 30.11 10 SCT050 None
2018-08-17 04:53 55 53 - 93 - Calm - 30.11 30.09 10 CLR None
2018-08-17 03:53 54 53 - 96 - Calm - 30.10 30.09 10 CLR None

Support USWX by starting your Amazon purchase here.